Temp: 10.0°C   Baro: 1017.7mb
  Wind: 4.9mph   Dir: NNW (334°)
  Rain: 0.0mm (0.0mm/hr)
  Sun: 399W/m2  Humidity: 63%

Historic data

Bath Spa Weather Station Historical Data
Daily Summary for January 31, 2023 Units:  English    Metric   Both
Daily Weekly Monthly Yearly Custom
  High: Low: Average:
Temperature: 51.4 °F 40.1 °F 45.3 °F
Dew Point: 47.3 °F 36.1 °F 40.5 °F
Humidity: 93% 69.2% 83%
Wind Speed: 13.4mph 0mph 6mph
Wind Gust: 26mph - -
Wind- - West
Pressure: 30.38 in 30.28 in -
Precipitation: 0.00 in    
Historical Graphs
 
 
Tabular Data for January 31, 2023
Time Temperature Dew Point Pressure Wind Wind Speed Wind Gust Humidity Rainfall Rate (Hourly) solar
00:09 40.1 °F 37.4 °F 30.38 in WSW 2.8 mph 5 mph 90% 0.00 in 0 W/m2
00:14 40.3 °F 37.6 °F 30.38 in WSW 2.3 mph 4 mph 90% 0.00 in 0 W/m2
00:19 40.3 °F 37.6 °F 30.38 in WSW 2.9 mph 6 mph 90% 0.00 in 0 W/m2
00:24 40.3 °F 37.6 °F 30.37 in WSW 2.9 mph 6 mph 90% 0.00 in 0 W/m2
00:29 40.5 °F 37.8 °F 30.38 in WSW 4.1 mph 8 mph 90% 0.00 in 0 W/m2
00:34 40.5 °F 37.8 °F 30.38 in WSW 4 mph 8 mph 90% 0.00 in 0 W/m2
00:39 40.5 °F 37.8 °F 30.37 in WSW 3.6 mph 8 mph 90% 0.00 in 0 W/m2
00:44 40.6 °F 37.8 °F 30.37 in WSW 4.5 mph 8 mph 90% 0.00 in 0 W/m2
00:49 40.7 °F 38 °F 30.37 in WSW 4.9 mph 10 mph 90% 0.00 in 0 W/m2
00:54 40.8 °F 38.1 °F 30.37 in WSW 3.9 mph 9 mph 90% 0.00 in 0 W/m2
00:59 41 °F 38 °F 30.37 in SW 4.9 mph 9 mph 89.4% 0.00 in 0 W/m2
01:04 41.2 °F 38.1 °F 30.37 in WSW 5.3 mph 10 mph 89% 0.00 in 0 W/m2
01:09 41.3 °F 38.2 °F 30.37 in SW 5 mph 10 mph 89% 0.00 in 0 W/m2
01:14 41.3 °F 38.1 °F 30.37 in WSW 2.4 mph 5 mph 88.6% 0.00 in 0 W/m2
01:19 41.2 °F 37.9 °F 30.36 in West 2.6 mph 6 mph 88% 0.00 in 0 W/m2
01:24 41.2 °F 37.9 °F 30.36 in West 1.9 mph 4 mph 88% 0.00 in 0 W/m2
01:29 41 °F 37.8 °F 30.36 in West 3.8 mph 6 mph 88% 0.00 in 0 W/m2
01:34 41 °F 37.8 °F 30.36 in West 2.6 mph 5 mph 88% 0.00 in 0 W/m2
01:39 41.1 °F 37.9 °F 30.35 in West 1.9 mph 4 mph 88% 0.00 in 0 W/m2
01:44 41.2 °F 37.9 °F 30.35 in West 2 mph 4 mph 88% 0.00 in 0 W/m2
01:49 41.2 °F 37.9 °F 30.36 in West 2.2 mph 5 mph 88% 0.00 in 0 W/m2
01:54 41.3 °F 38 °F 30.35 in West 2.5 mph 5 mph 88% 0.00 in 0 W/m2
01:59 41.4 °F 38.1 °F 30.35 in West 3.8 mph 6 mph 88% 0.00 in 0 W/m2
02:04 41.4 °F 38.1 °F 30.35 in West 2.8 mph 7 mph 88% 0.00 in 0 W/m2
02:09 41.5 °F 38.3 °F 30.35 in West 3.3 mph 6 mph 88% 0.00 in 0 W/m2
02:14 41.5 °F 38.3 °F 30.35 in West 3.1 mph 6 mph 88% 0.00 in 0 W/m2
02:19 41.5 °F 38.3 °F 30.35 in West 2 mph 6 mph 88% 0.00 in 0 W/m2
02:24 41.5 °F 38.3 °F 30.35 in West 2.1 mph 6 mph 88% 0.00 in 0 W/m2
02:29 41.5 °F 38.3 °F 30.35 in West 1.6 mph 4 mph 88% 0.00 in 0 W/m2
02:34 41.5 °F 38.3 °F 30.35 in West 1.5 mph 4 mph 88% 0.00 in 0 W/m2
02:39 41.5 °F 38.3 °F 30.34 in West 2.1 mph 4 mph 88% 0.00 in 0 W/m2
02:44 41.5 °F 38.3 °F 30.35 in West 2 mph 3 mph 88% 0.00 in 0 W/m2
02:49 41.5 °F 38.3 °F 30.34 in West 1.2 mph 3 mph 88% 0.00 in 0 W/m2
02:54 41.5 °F 38.3 °F 30.34 in West 0.8 mph 2 mph 88% 0.00 in 0 W/m2
02:59 41.6 °F 38.4 °F 30.34 in West 0.8 mph 2 mph 88% 0.00 in 0 W/m2
03:04 41.7 °F 38.5 °F 30.34 in West 0.5 mph 3 mph 88% 0.00 in 0 W/m2
03:09 41.7 °F 38.5 °F 30.34 in West 1.7 mph 3 mph 88% 0.00 in 0 W/m2
03:14 41.7 °F 38.5 °F 30.34 in West 2.5 mph 4 mph 88% 0.00 in 0 W/m2
03:19 41.8 °F 38.6 °F 30.34 in West 2.1 mph 5 mph 88% 0.00 in 0 W/m2
03:24 42 °F 38.7 °F 30.33 in West 3.1 mph 8 mph 88% 0.00 in 0 W/m2
03:29 42.1 °F 38.8 °F 30.33 in West 2.8 mph 6 mph 88% 0.00 in 0 W/m2
03:34 42 °F 38.8 °F 30.32 in West 2.9 mph 5 mph 88% 0.00 in 0 W/m2
03:39 41.9 °F 38.7 °F 30.33 in WNW 4.4 mph 7 mph 88% 0.00 in 0 W/m2
03:44 41.7 °F 38.5 °F 30.33 in West 4.2 mph 6 mph 88% 0.00 in 0 W/m2
03:49 41.6 °F 38.4 °F 30.32 in West 3.6 mph 7 mph 88% 0.00 in 0 W/m2
03:54 41.5 °F 38.2 °F 30.32 in West 3.3 mph 6 mph 88% 0.00 in 0 W/m2
03:59 41.3 °F 38 °F 30.32 in WSW 3.7 mph 7 mph 88% 0.00 in 0 W/m2
04:04 41.2 °F 37.9 °F 30.32 in WSW 2.5 mph 6 mph 88% 0.00 in 0 W/m2
04:09 41 °F 37.8 °F 30.32 in WSW 2.5 mph 9 mph 88% 0.00 in 0 W/m2
04:14 40.8 °F 37.6 °F 30.32 in West 2 mph 6 mph 88% 0.00 in 0 W/m2
04:19 40.8 °F 37.6 °F 30.32 in WSW 3.5 mph 8 mph 88% 0.00 in 0 W/m2
04:24 40.6 °F 37.4 °F 30.32 in West 4.2 mph 6 mph 88% 0.00 in 0 W/m2
04:29 40.6 °F 37.4 °F 30.32 in WSW 3.2 mph 7 mph 88% 0.00 in 0 W/m2
04:34 40.6 °F 37.4 °F 30.32 in West 4.8 mph 8 mph 88% 0.00 in 0 W/m2
04:39 40.6 °F 37.4 °F 30.32 in WSW 0.9 mph 5 mph 88% 0.00 in 0 W/m2
04:44 40.8 °F 37.6 °F 30.32 in WSW 2.4 mph 5 mph 88% 0.00 in 0 W/m2
04:49 41 °F 37.8 °F 30.32 in WSW 2.8 mph 7 mph 88% 0.00 in 0 W/m2
04:54 41.2 °F 37.9 °F 30.31 in West 2.9 mph 6 mph 88% 0.00 in 0 W/m2
04:59 41.4 °F 38.3 °F 30.31 in West 1.7 mph 5 mph 88.8% 0.00 in 0 W/m2
05:04 41.4 °F 38.3 °F 30.31 in West 2.5 mph 6 mph 89% 0.00 in 0 W/m2
05:09 41.6 °F 38.6 °F 30.31 in WSW 3.8 mph 7 mph 89% 0.00 in 0 W/m2
05:14 41.7 °F 38.7 °F 30.31 in WSW 2.3 mph 4 mph 89% 0.00 in 0 W/m2
05:19 42 °F 38.9 °F 30.31 in WSW 1.3 mph 5 mph 89% 0.00 in 0 W/m2
05:24 42.1 °F 39 °F 30.31 in WSW 1.3 mph 3 mph 89% 0.00 in 0 W/m2
05:29 42.1 °F 39 °F 30.31 in WSW 1.3 mph 3 mph 89% 0.00 in 0 W/m2
05:34 42.2 °F 39.1 °F 30.31 in WSW 0.8 mph 3 mph 89% 0.00 in 0 W/m2
05:39 42.3 °F 39.2 °F 30.30 in WSW 0.2 mph 2 mph 89% 0.00 in 0 W/m2
05:44 42.3 °F 39.2 °F 30.30 in Calm   1 mph 89% 0.00 in 0 W/m2
05:49 42.3 °F 39.2 °F 30.30 in Calm   1 mph 89% 0.00 in 0 W/m2
05:54 42.3 °F 39.2 °F 30.30 in WSW 0.4 mph 2 mph 89% 0.00 in 0 W/m2
05:59 42.3 °F 39.2 °F 30.30 in WSW 0.2 mph 2 mph 89% 0.00 in 0 W/m2
06:04 42.4 °F 39.3 °F 30.30 in WSW 1.1 mph 4 mph 89% 0.00 in 0 W/m2
06:09 42.9 °F 39.9 °F 30.30 in West 6.2 mph 14 mph 89% 0.00 in 0 W/m2
06:14 44.5 °F 41.6 °F 30.29 in West 7 mph 14 mph 89.4% 0.00 in 0 W/m2
06:19 45.2 °F 42.5 °F 30.29 in West 10 mph 20 mph 90% 0.00 in 0 W/m2
06:24 45.7 °F 43 °F 30.29 in WSW 8.3 mph 20 mph 90% 0.00 in 0 W/m2
06:29 45.9 °F 43.2 °F 30.29 in West 7.8 mph 17 mph 90% 0.00 in 0 W/m2
06:34 46 °F 43.2 °F 30.29 in West 9.8 mph 16 mph 89.8% 0.00 in 0 W/m2
06:39 46.1 °F 43.4 °F 30.29 in West 7.6 mph 13 mph 90% 0.00 in 0 W/m2
06:44 46.2 °F 43.5 °F 30.29 in West 8.8 mph 13 mph 90% 0.00 in 0 W/m2
06:49 46.2 °F 43.5 °F 30.29 in West 7.2 mph 15 mph 90% 0.00 in 0 W/m2
06:54 46.4 °F 43.7 °F 30.29 in West 9 mph 15 mph 90% 0.00 in 0 W/m2
06:59 46.6 °F 43.9 °F 30.29 in West 7.1 mph 16 mph 90% 0.00 in 0 W/m2
07:04 46.7 °F 44 °F 30.29 in West 5.5 mph 14 mph 90% 0.00 in 0 W/m2
07:09 46.8 °F 44.1 °F 30.29 in WNW 6.8 mph 12 mph 90% 0.00 in 0 W/m2
07:14 46.8 °F 44.1 °F 30.28 in West 7.6 mph 12 mph 90% 0.00 in 0 W/m2
07:19 46.8 °F 44.1 °F 30.29 in West 8.2 mph 16 mph 90% 0.00 in 0 W/m2
07:24 46.8 °F 44.1 °F 30.29 in WNW 10.2 mph 17 mph 90% 0.00 in 0 W/m2
07:29 46.9 °F 44.2 °F 30.29 in West 9.1 mph 15 mph 90% 0.00 in 0 W/m2
07:34 46.9 °F 44.2 °F 30.29 in West 8.2 mph 18 mph 90% 0.00 in 0 W/m2
07:39 46.9 °F 44.2 °F 30.29 in West 8.4 mph 16 mph 90% 0.00 in 0 W/m2
07:44 47 °F 44.3 °F 30.29 in West 8.8 mph 16 mph 90% 0.00 in 0 W/m2
07:49 46.9 °F 44.2 °F 30.29 in West 7.8 mph 14 mph 90% 0.00 in 0 W/m2
07:54 47.1 °F 44.4 °F 30.29 in West 6.8 mph 14 mph 90% 0.00 in 5 W/m2
07:59 47.1 °F 44.4 °F 30.29 in West 9.6 mph 14 mph 90% 0.00 in 7 W/m2
08:04 47.1 °F 44.4 °F 30.29 in West 8.6 mph 16 mph 90% 0.00 in 7 W/m2
08:09 47.1 °F 44.4 °F 30.29 in West 8.7 mph 17 mph 90% 0.00 in 7 W/m2
08:14 47.3 °F 44.6 °F 30.29 in West 9.4 mph 18 mph 90% 0.00 in 9 W/m2
08:19 47.5 °F 45 °F 30.29 in West 13.3 mph 18 mph 91% 0.00 in 12 W/m2
08:24 47.5 °F 45 °F 30.29 in West 10.6 mph 17 mph 91% 0.00 in 14 W/m2
08:29 47.5 °F 45 °F 30.29 in West 10.4 mph 19 mph 91% 0.00 in 19 W/m2
08:34 47.5 °F 45 °F 30.29 in West 13.2 mph 21 mph 91% 0.00 in 37 W/m2
08:39 47.5 °F 45 °F 30.29 in West 10.6 mph 18 mph 91% 0.00 in 35 W/m2
08:44 47.5 °F 45 °F 30.29 in West 13 mph 20 mph 91% 0.00 in 58 W/m2
08:49 47.5 °F 45.2 °F 30.29 in West 11.9 mph 21 mph 91.8% 0.00 in 63 W/m2
08:54 47.6 °F 45.4 °F 30.29 in West 8.8 mph 16 mph 92% 0.00 in 51 W/m2
08:59 47.7 °F 45.5 °F 30.29 in West 10 mph 18 mph 92% 0.00 in 37 W/m2
09:04 47.6 °F 45.4 °F 30.29 in West 7.8 mph 19 mph 92% 0.00 in 28 W/m2
09:09 47.7 °F 45.5 °F 30.29 in West 10.6 mph 17 mph 92% 0.00 in 39 W/m2
09:14 47.7 °F 45.5 °F 30.29 in West 7.6 mph 16 mph 92% 0.00 in 39 W/m2
09:19 47.7 °F 45.5 °F 30.29 in West 8.7 mph 19 mph 92% 0.00 in 37 W/m2
09:24 47.7 °F 45.5 °F 30.29 in West 11.2 mph 16 mph 92% 0.00 in 19 W/m2
09:29 47.7 °F 45.5 °F 30.29 in West 7 mph 18 mph 92% 0.00 in 16 W/m2
09:34 47.7 °F 45.5 °F 30.29 in West 8.8 mph 18 mph 92% 0.00 in 25 W/m2
09:39 47.7 °F 45.6 °F 30.29 in West 7.9 mph 14 mph 92.4% 0.00 in 26 W/m2
09:44 47.7 °F 45.7 °F 30.30 in West 9.1 mph 17 mph 93% 0.00 in 47 W/m2
09:49 47.8 °F 45.9 °F 30.30 in West 7.6 mph 17 mph 93% 0.00 in 58 W/m2
09:54 47.9 °F 46 °F 30.30 in West 9.8 mph 17 mph 93% 0.00 in 81 W/m2
09:59 48.2 °F 46.2 °F 30.29 in WNW 8.4 mph 16 mph 93% 0.00 in 121 W/m2
10:04 48.4 °F 46.4 °F 30.29 in WNW 8.2 mph 17 mph 93% 0.00 in 139 W/m2
10:09 48.6 °F 46.6 °F 30.29 in WNW 9.9 mph 17 mph 92.8% 0.00 in 185 W/m2
10:14 48.7 °F 46.8 °F 30.30 in West 10.2 mph 16 mph 92.8% 0.00 in 209 W/m2
10:19 48.9 °F 46.8 °F 30.30 in West 9.2 mph 19 mph 92% 0.00 in 172 W/m2
10:24 49.1 °F 46.9 °F 30.30 in West 8.8 mph 16 mph 92% 0.00 in 218 W/m2
10:29 49.3 °F 47.1 °F 30.30 in West 8.6 mph 18 mph 92% 0.00 in 227 W/m2
10:34 49.5 °F 47.3 °F 30.30 in WNW 10.2 mph 17 mph 92% 0.00 in 229 W/m2
10:39 49.6 °F 47.2 °F 30.30 in West 10 mph 18 mph 91.4% 0.00 in 339 W/m2
10:44 49.8 °F 47.3 °F 30.30 in West 7.8 mph 18 mph 91% 0.00 in 309 W/m2
10:49 49.8 °F 47.3 °F 30.30 in West 7.6 mph 16 mph 91% 0.00 in 227 W/m2
10:54 49.8 °F 47 °F 30.30 in West 10.8 mph 19 mph 90.4% 0.00 in 202 W/m2
10:59 49.6 °F 46.8 °F 30.30 in WSW 10.2 mph 18 mph 90% 0.00 in 220 W/m2
11:04 49.6 °F 46.8 °F 30.31 in West 9.6 mph 18 mph 90% 0.00 in 188 W/m2
11:09 49.6 °F 46.8 °F 30.31 in West 8 mph 16 mph 90% 0.00 in 225 W/m2
11:14 49.8 °F 46.9 °F 30.31 in West 8.6 mph 16 mph 90% 0.00 in 190 W/m2
11:19 49.6 °F 46.7 °F 30.31 in West 8.8 mph 17 mph 89.4% 0.00 in 163 W/m2
11:24 49.6 °F 46.5 °F 30.30 in West 6.1 mph 16 mph 89% 0.00 in 207 W/m2
11:29 49.6 °F 46.6 °F 30.30 in West 9.4 mph 16 mph 89% 0.00 in 253 W/m2
11:34 49.8 °F 46.8 °F 30.31 in West 7.2 mph 13 mph 89% 0.00 in 276 W/m2
11:39 50.1 °F 47 °F 30.30 in West 4.2 mph 10 mph 89% 0.00 in 290 W/m2
11:44 50.2 °F 47.1 °F 30.30 in WNW 5.3 mph 14 mph 89% 0.00 in 315 W/m2
11:49 50.2 °F 47.1 °F 30.30 in West 8.8 mph 16 mph 89% 0.00 in 309 W/m2
11:54 50.4 °F 46.9 °F 30.29 in West 9.2 mph 16 mph 88% 0.00 in 237 W/m2
11:59 50.3 °F 46.7 °F 30.29 in West 8.8 mph 13 mph 87.6% 0.00 in 206 W/m2
12:04 50.1 °F 46.3 °F 30.30 in West 8.8 mph 14 mph 87% 0.00 in 218 W/m2
12:09 50.1 °F 46.2 °F 30.30 in West 10.6 mph 19 mph 86.6% 0.00 in 301 W/m2
12:14 50.4 °F 46.4 °F 30.30 in West 8 mph 17 mph 86% 0.00 in 327 W/m2
12:19 50.6 °F 46.3 °F 30.30 in West 8.8 mph 15 mph 85.2% 0.00 in 362 W/m2
12:24 50.7 °F 46.2 °F 30.30 in West 9.4 mph 16 mph 84.4% 0.00 in 332 W/m2
12:29 50.7 °F 45.8 °F 30.30 in West 7.9 mph 15 mph 83.4% 0.00 in 258 W/m2
12:34 50.7 °F 45.5 °F 30.31 in WNW 6.8 mph 17 mph 82.2% 0.00 in 313 W/m2
12:39 50.9 °F 44.8 °F 30.31 in WNW 11.2 mph 18 mph 79.6% 0.00 in 343 W/m2
12:44 51 °F 43.9 °F 30.30 in West 9.8 mph 18 mph 76.8% 0.00 in 403 W/m2
12:49 51.3 °F 43.7 °F 30.30 in WNW 9.6 mph 21 mph 75.4% 0.00 in 388 W/m2
12:54 51.4 °F 43.6 °F 30.30 in WNW 12.2 mph 26 mph 74.4% 0.00 in 332 W/m2
12:59 51.1 °F 42.4 °F 30.30 in West 10.8 mph 19 mph 72% 0.00 in 274 W/m2
13:04 51.1 °F 42.4 °F 30.30 in West 8.4 mph 17 mph 72% 0.00 in 278 W/m2
13:09 51 °F 42.1 °F 30.30 in WNW 12.4 mph 20 mph 71.4% 0.00 in 241 W/m2
13:14 50.7 °F 41.7 °F 30.30 in WNW 9.1 mph 19 mph 71% 0.00 in 255 W/m2
13:19 50.7 °F 41.7 °F 30.30 in West 8.4 mph 15 mph 71% 0.00 in 272 W/m2
13:24 51 °F 42 °F 30.30 in WNW 10 mph 15 mph 71% 0.00 in 279 W/m2
13:29 51.1 °F 42 °F 30.30 in WNW 9.1 mph 16 mph 70.8% 0.00 in 288 W/m2
13:34 51.2 °F 41.9 °F 30.30 in West 4.9 mph 15 mph 70.2% 0.00 in 274 W/m2
13:39 51.4 °F 41.8 °F 30.30 in West 7 mph 15 mph 69.8% 0.00 in 267 W/m2
13:44 51 °F 41.3 °F 30.30 in West 13.4 mph 20 mph 69.2% 0.00 in 250 W/m2
13:49 50.7 °F 41.9 °F 30.30 in WNW 10.2 mph 19 mph 71.6% 0.00 in 162 W/m2
13:54 50.5 °F 42.2 °F 30.30 in WNW 6.9 mph 14 mph 72.8% 0.00 in 142 W/m2
13:59 50.8 °F 42.5 °F 30.30 in WNW 7 mph 14 mph 72.8% 0.00 in 264 W/m2
14:04 51.2 °F 42.4 °F 30.30 in WNW 7.2 mph 16 mph 71.8% 0.00 in 272 W/m2
14:09 51.2 °F 42.2 °F 30.30 in WNW 8.8 mph 16 mph 71% 0.00 in 274 W/m2
14:14 51.3 °F 42.3 °F 30.29 in WNW 7.7 mph 17 mph 71% 0.00 in 257 W/m2
14:19 51.3 °F 42.1 °F 30.29 in West 10.2 mph 17 mph 70.6% 0.00 in 220 W/m2
14:24 51 °F 41.9 °F 30.30 in NW 11.4 mph 18 mph 70.8% 0.00 in 246 W/m2
14:29 51 °F 42 °F 30.29 in WNW 11 mph 19 mph 71% 0.00 in 253 W/m2
14:34 51.3 °F 42.3 °F 30.30 in WNW 8.8 mph 16 mph 71% 0.00 in 232 W/m2
14:39 51.3 °F 42.4 °F 30.29 in WNW 7.8 mph 16 mph 71.4% 0.00 in 197 W/m2
14:44 51.1 °F 42.4 °F 30.30 in West 8.8 mph 15 mph 72% 0.00 in 172 W/m2
14:49 50.7 °F 41.7 °F 30.30 in West 12.1 mph 20 mph 71% 0.00 in 176 W/m2
14:54 50.7 °F 41.5 °F 30.30 in WNW 8 mph 16 mph 70.4% 0.00 in 163 W/m2
14:59 50.6 °F 41.4 °F 30.30 in WNW 10 mph 18 mph 70.4% 0.00 in 155 W/m2
15:04 50.3 °F 40.9 °F 30.30 in West 8.8 mph 17 mph 70% 0.00 in 146 W/m2
15:09 50.3 °F 41 °F 30.30 in West 7.8 mph 18 mph 70.2% 0.00 in 141 W/m2
15:14 50.3 °F 40.9 °F 30.30 in NW 7.4 mph 16 mph 70% 0.00 in 130 W/m2
15:19 50.3 °F 40.9 °F 30.31 in WNW 7.2 mph 14 mph 70% 0.00 in 121 W/m2
15:23 50.2 °F 40.8 °F 30.30 in West 7.2 mph 12 mph 70% 0.00 in 116 W/m2
15:29 50.2 °F 40.8 °F 30.31 in West 8.5 mph 15 mph 70% 0.00 in 107 W/m2
15:34 49.8 °F 40.7 °F 30.31 in WNW 7.6 mph 15 mph 70.6% 0.00 in 104 W/m2
15:39 49.8 °F 40.7 °F 30.31 in WNW 7.4 mph 15 mph 70.8% 0.00 in 93 W/m2
15:44 49.8 °F 40.8 °F 30.30 in West 4.4 mph 10 mph 71% 0.00 in 81 W/m2
15:49 49.7 °F 40.7 °F 30.31 in West 10.6 mph 14 mph 71% 0.00 in 76 W/m2
15:54 49.5 °F 40.5 °F 30.31 in WNW 5.1 mph 9 mph 71% 0.00 in 67 W/m2
15:59 49.4 °F 40.4 °F 30.31 in West 2.4 mph 8 mph 71.2% 0.00 in 53 W/m2
16:04 49.1 °F 40.5 °F 30.31 in West 6.2 mph 9 mph 72% 0.00 in 47 W/m2
16:09 48.8 °F 40.2 °F 30.31 in West 5.2 mph 9 mph 72% 0.00 in 42 W/m2
16:14 48.6 °F 39.8 °F 30.31 in West 3.3 mph 9 mph 71.6% 0.00 in 32 W/m2
16:19 48.3 °F 39.7 °F 30.31 in West 6.4 mph 11 mph 72% 0.00 in 28 W/m2
16:24 47.9 °F 39.3 °F 30.32 in WNW 7.1 mph 11 mph 72% 0.00 in 21 W/m2
16:29 47.7 °F 39 °F 30.32 in WNW 7.6 mph 11 mph 72% 0.00 in 19 W/m2
16:34 47.4 °F 39 °F 30.32 in West 7.5 mph 11 mph 72.6% 0.00 in 18 W/m2
16:39 47.1 °F 38.8 °F 30.32 in WNW 5.6 mph 13 mph 73% 0.00 in 16 W/m2
16:44 46.9 °F 38.7 °F 30.32 in WNW 7.1 mph 13 mph 73% 0.00 in 12 W/m2
16:49 46.7 °F 38.5 °F 30.32 in West 7.9 mph 13 mph 73% 0.00 in 7 W/m2
16:54 46.6 °F 38.6 °F 30.32 in West 7 mph 12 mph 73.6% 0.00 in 5 W/m2
16:59 46.2 °F 38.5 °F 30.32 in West 7.8 mph 12 mph 74% 0.00 in 0 W/m2
17:04 46 °F 38.3 °F 30.32 in WNW 7 mph 11 mph 74% 0.00 in 0 W/m2
17:09 45.9 °F 38.1 °F 30.32 in WNW 5.6 mph 12 mph 74% 0.00 in 0 W/m2
17:14 45.8 °F 38.1 °F 30.32 in WNW 7 mph 9 mph 74.4% 0.00 in 0 W/m2
17:19 45.7 °F 38.3 °F 30.32 in WNW 3.3 mph 13 mph 75% 0.00 in 0 W/m2
17:24 45.6 °F 38.2 °F 30.32 in West 5.6 mph 12 mph 75% 0.00 in 0 W/m2
17:29 45.5 °F 38.1 °F 30.32 in WNW 4.9 mph 9 mph 75% 0.00 in 0 W/m2
17:34 45.3 °F 37.9 °F 30.32 in West 5.2 mph 10 mph 75% 0.00 in 0 W/m2
17:39 45.3 °F 38 °F 30.32 in NW 4.5 mph 10 mph 75.5% 0.00 in 0 W/m2
17:44 45.1 °F 37.9 °F 30.32 in West 4.8 mph 11 mph 75.8% 0.00 in 0 W/m2
17:49 45.1 °F 37.9 °F 30.32 in WNW 5.8 mph 13 mph 76% 0.00 in 0 W/m2
17:54 45.1 °F 37.9 °F 30.32 in WNW 6.4 mph 11 mph 76% 0.00 in 0 W/m2
17:59 45.1 °F 37.9 °F 30.32 in WNW 4.2 mph 10 mph 76% 0.00 in 0 W/m2
18:04 45 °F 37.9 °F 30.32 in WNW 4 mph 9 mph 76% 0.00 in 0 W/m2
18:09 44.8 °F 37.8 °F 30.32 in West 3.7 mph 8 mph 76% 0.00 in 0 W/m2
18:14 44.5 °F 37.5 °F 30.32 in WNW 2.4 mph 7 mph 76% 0.00 in 0 W/m2
18:19 44.2 °F 37.2 °F 30.33 in WNW 3.7 mph 6 mph 76% 0.00 in 0 W/m2
18:24 44.1 °F 37.5 °F 30.33 in WNW 3.3 mph 7 mph 77% 0.00 in 0 W/m2
18:29 43.9 °F 37.2 °F 30.32 in West 4.4 mph 7 mph 77% 0.00 in 0 W/m2
18:34 43.7 °F 37 °F 30.32 in West 3.7 mph 7 mph 77% 0.00 in 0 W/m2
18:39 43.5 °F 37 °F 30.32 in West 3.7 mph 8 mph 77.8% 0.00 in 0 W/m2
18:44 43.5 °F 37 °F 30.32 in West 6 mph 10 mph 78% 0.00 in 0 W/m2
18:49 43.4 °F 37 °F 30.33 in WNW 4.9 mph 9 mph 78% 0.00 in 0 W/m2
18:54 43.3 °F 36.9 °F 30.33 in WNW 5.2 mph 9 mph 78% 0.00 in 0 W/m2
18:59 43.3 °F 36.9 °F 30.33 in WNW 4.3 mph 8 mph 78% 0.00 in 0 W/m2
19:04 43.6 °F 37 °F 30.33 in West 3.5 mph 7 mph 77.6% 0.00 in 0 W/m2
19:09 43.7 °F 37 °F 30.33 in West 2.5 mph 7 mph 77% 0.00 in 0 W/m2
19:14 43.5 °F 36.9 °F 30.33 in West 2.9 mph 5 mph 77% 0.00 in 0 W/m2
19:19 43.3 °F 36.7 °F 30.33 in West 2.7 mph 5 mph 77% 0.00 in 0 W/m2
19:24 43.3 °F 36.9 °F 30.33 in NW 2.9 mph 5 mph 78% 0.00 in 0 W/m2
19:29 43.1 °F 36.7 °F 30.33 in WNW 1.8 mph 4 mph 78% 0.00 in 0 W/m2
19:34 42.9 °F 36.6 °F 30.33 in WNW 2.8 mph 5 mph 78% 0.00 in 0 W/m2
19:39 42.6 °F 36.3 °F 30.33 in West 2.1 mph 5 mph 78.2% 0.00 in 0 W/m2
19:44 42.5 °F 36.4 °F 30.33 in NW 1.7 mph 6 mph 79% 0.00 in 0 W/m2
19:49 42.4 °F 36.3 °F 30.32 in NNW 3.2 mph 5 mph 79% 0.00 in 0 W/m2
19:54 42.3 °F 36.1 °F 30.33 in NW 3.2 mph 7 mph 79% 0.00 in 0 W/m2
19:59 42.3 °F 36.5 °F 30.33 in WNW 3.1 mph 6 mph 80% 0.00 in 0 W/m2
20:04 42.3 °F 36.6 °F 30.33 in West 3.6 mph 8 mph 80% 0.00 in 0 W/m2
20:09 42.8 °F 37 °F 30.33 in WNW 3.2 mph 8 mph 80% 0.00 in 0 W/m2
20:14 43.1 °F 37.1 °F 30.33 in West 4.5 mph 9 mph 79.4% 0.00 in 0 W/m2
20:19 43.3 °F 37.4 °F 30.32 in West 6.8 mph 11 mph 79.4% 0.00 in 0 W/m2
20:24 43.7 °F 37.9 °F 30.33 in West 7 mph 12 mph 80% 0.00 in 0 W/m2
20:29 43.7 °F 37.9 °F 30.32 in West 7.2 mph 12 mph 80% 0.00 in 0 W/m2
20:34 43.6 °F 37.9 °F 30.32 in West 5.4 mph 10 mph 80% 0.00 in 0 W/m2
20:39 43.4 °F 37.9 °F 30.32 in WNW 6.4 mph 12 mph 80.6% 0.00 in 0 W/m2
20:44 43.3 °F 37.8 °F 30.32 in WNW 3.7 mph 9 mph 81% 0.00 in 0 W/m2
20:49 43 °F 37.6 °F 30.32 in West 6.6 mph 12 mph 81% 0.00 in 0 W/m2
20:54 43 °F 37.6 °F 30.32 in WNW 5.7 mph 12 mph 81% 0.00 in 0 W/m2
20:59 43 °F 37.6 °F 30.32 in West 5.6 mph 11 mph 81% 0.00 in 0 W/m2
21:04 43 °F 37.6 °F 30.32 in West 5.7 mph 10 mph 81.2% 0.00 in 0 W/m2
21:09 43 °F 37.6 °F 30.32 in WNW 6.1 mph 10 mph 81% 0.00 in 0 W/m2
21:14 42.7 °F 37.3 °F 30.32 in West 5.4 mph 9 mph 81% 0.00 in 0 W/m2
21:19 42.6 °F 37.2 °F 30.32 in West 5.4 mph 8 mph 81% 0.00 in 0 W/m2
21:24 42.4 °F 37 °F 30.32 in WNW 5.5 mph 9 mph 81% 0.00 in 0 W/m2
21:29 42.3 °F 36.9 °F 30.32 in WNW 3.5 mph 9 mph 81% 0.00 in 0 W/m2
21:34 42.3 °F 36.9 °F 30.32 in WNW 3.2 mph 8 mph 81% 0.00 in 0 W/m2
21:39 42.1 °F 37 °F 30.32 in West 3.8 mph 6 mph 82% 0.00 in 0 W/m2
21:44 42.1 °F 37 °F 30.32 in West 3.2 mph 7 mph 82% 0.00 in 0 W/m2
21:49 42.1 °F 37 °F 30.32 in WNW 3.2 mph 6 mph 82% 0.00 in 0 W/m2
21:54 42.3 °F 37.3 °F 30.32 in West 3.8 mph 8 mph 82% 0.00 in 0 W/m2
21:59 42.5 °F 37.5 °F 30.32 in West 5.5 mph 11 mph 82% 0.00 in 0 W/m2
22:04 42.9 °F 37.6 °F 30.32 in WNW 6.6 mph 12 mph 81.4% 0.00 in 0 W/m2
22:09 42.8 °F 37.4 °F 30.33 in WNW 6.6 mph 11 mph 81% 0.00 in 0 W/m2
22:14 42.5 °F 37.1 °F 30.33 in West 4.8 mph 10 mph 81% 0.00 in 0 W/m2
22:18 42.4 °F 37.4 °F 30.33 in West 6.2 mph 9 mph 82% 0.00 in 0 W/m2
22:24 42.4 °F 37.4 °F 30.33 in West 7.1 mph 13 mph 82% 0.00 in 0 W/m2
22:29 42.6 °F 37.8 °F 30.33 in West 8.2 mph 13 mph 83% 0.00 in 0 W/m2
22:34 42.8 °F 37.9 °F 30.33 in West 6.8 mph 12 mph 83% 0.00 in 0 W/m2
22:39 43 °F 38.4 °F 30.33 in West 6.9 mph 12 mph 83.8% 0.00 in 0 W/m2
22:44 42.9 °F 38.4 °F 30.32 in WNW 7.6 mph 13 mph 84% 0.00 in 0 W/m2
22:49 42.6 °F 38.1 °F 30.32 in WNW 6.8 mph 11 mph 84% 0.00 in 0 W/m2
22:54 42.6 °F 38.1 °F 30.32 in WNW 5.9 mph 12 mph 84% 0.00 in 0 W/m2
22:59 42.6 °F 38.1 °F 30.33 in WNW 5.6 mph 10 mph 84% 0.00 in 0 W/m2
23:04 42.6 °F 38.1 °F 30.33 in WNW 6.3 mph 14 mph 84% 0.00 in 0 W/m2
23:09 42.6 °F 38.1 °F 30.33 in WNW 6.6 mph 14 mph 84% 0.00 in 0 W/m2
23:14 42.6 °F 38.1 °F 30.33 in WNW 7.4 mph 12 mph 84% 0.00 in 0 W/m2
23:19 42.6 °F 38.1 °F 30.33 in WNW 6.6 mph 12 mph 84% 0.00 in 0 W/m2
23:24 42.4 °F 37.9 °F 30.33 in West 7 mph 12 mph 84% 0.00 in 0 W/m2
23:29 42.3 °F 37.8 °F 30.33 in WNW 6.9 mph 12 mph 84% 0.00 in 0 W/m2
23:34 42.3 °F 37.8 °F 30.34 in WNW 5.5 mph 9 mph 84% 0.00 in 0 W/m2
23:39 42.3 °F 37.5 °F 30.34 in West 5.8 mph 10 mph 83.2% 0.00 in 0 W/m2
23:43 42.3 °F 37.5 °F 30.34 in West 4.4 mph 8 mph 83% 0.00 in 0 W/m2
23:49 42.4 °F 37.6 °F 30.34 in WNW 5.7 mph 9 mph 83% 0.00 in 0 W/m2
23:54 42.4 °F 37.6 °F 30.33 in WNW 6.1 mph 11 mph 83% 0.00 in 0 W/m2
23:59 42.4 °F 37.4 °F 30.33 in West 6.6 mph 13 mph 82% 0.00 in 0 W/m2
Bath Spa Weather
Compliments of Weather Underground - 2 mb